createdAt,value
2018-02-03T00:01:14.213Z,43.10
2018-02-03T00:03:47.471Z,43.10
2018-02-03T00:06:19.880Z,43.00
2018-02-03T00:08:52.396Z,43.10
2018-02-03T00:11:24.956Z,43.10
2018-02-03T00:13:57.475Z,43.10
2018-02-03T00:16:29.992Z,43.10
2018-02-03T00:19:02.539Z,43.00
2018-02-03T00:21:35.128Z,43.10
2018-02-03T00:24:07.721Z,43.10
2018-02-03T00:26:40.176Z,43.10
2018-02-03T00:29:13.447Z,43.10
2018-02-03T00:31:46.747Z,43.10
2018-02-03T00:34:19.331Z,43.00
2018-02-03T00:36:51.867Z,43.00
2018-02-03T00:39:24.391Z,43.00
2018-02-03T00:41:56.980Z,43.00
2018-02-03T00:44:29.500Z,43.00
2018-02-03T00:47:02.037Z,43.10
2018-02-03T00:49:34.540Z,43.10
2018-02-03T00:52:07.192Z,43.00
2018-02-03T00:54:39.711Z,43.20
2018-02-03T00:57:13.112Z,43.10
2018-02-03T00:59:46.496Z,43.10
2018-02-03T01:02:19.800Z,42.60
2018-02-03T01:04:52.280Z,43.00
2018-02-03T01:07:24.720Z,43.10
2018-02-03T01:09:57.946Z,43.10
2018-02-03T01:12:30.424Z,43.00
2018-02-03T01:15:02.898Z,43.00
2018-02-03T01:17:35.490Z,43.00
2018-02-03T01:20:07.937Z,43.00
2018-02-03T01:22:40.520Z,43.00
2018-02-03T01:25:12.989Z,43.00
2018-02-03T01:27:45.495Z,43.00
2018-02-03T01:30:18.008Z,43.00
2018-02-03T01:32:50.660Z,43.00
2018-02-03T01:35:23.205Z,43.00
2018-02-03T01:37:55.796Z,43.00
2018-02-03T01:40:28.361Z,43.00
2018-02-03T01:43:00.853Z,43.70
2018-02-03T01:45:33.372Z,43.00
2018-02-03T01:48:06.016Z,43.00
2018-02-03T01:50:39.344Z,43.10
2018-02-03T01:53:11.890Z,43.00
2018-02-03T01:55:44.384Z,43.00
2018-02-03T01:58:16.952Z,43.00
2018-02-03T02:00:50.263Z,43.10
2018-02-03T02:03:22.652Z,43.00
2018-02-03T02:05:55.182Z,43.00
2018-02-03T02:08:27.716Z,43.00
2018-02-03T02:11:00.183Z,43.00
2018-02-03T02:13:32.748Z,43.00
2018-02-03T02:16:05.224Z,43.00
2018-02-03T02:18:37.800Z,42.90
2018-02-03T02:21:10.280Z,43.60
2018-02-03T02:23:43.564Z,43.00
2018-02-03T02:26:16.089Z,43.00
2018-02-03T02:28:48.607Z,43.00
2018-02-03T02:31:21.074Z,42.90
2018-02-03T02:33:54.380Z,42.90
2018-02-03T02:36:27.756Z,43.00
2018-02-03T02:39:00.277Z,42.90
2018-02-03T02:41:32.844Z,43.00
2018-02-03T02:44:05.380Z,43.00
2018-02-03T02:46:38.659Z,42.90
2018-02-03T02:49:11.061Z,42.90
2018-02-03T02:51:43.709Z,43.00
2018-02-03T02:54:17.040Z,43.00
2018-02-03T02:56:50.308Z,43.00
2018-02-03T02:59:22.724Z,42.90
2018-02-03T03:01:56.055Z,43.60
2018-02-03T03:04:29.376Z,43.60
2018-02-03T03:07:01.988Z,42.90
2018-02-03T03:09:34.539Z,42.90
2018-02-03T03:12:06.981Z,42.90
2018-02-03T03:14:39.491Z,42.90
2018-02-03T03:17:12.018Z,42.90
2018-02-03T03:19:44.640Z,42.90
2018-02-03T03:22:17.162Z,42.90
2018-02-03T03:24:49.711Z,42.90
2018-02-03T03:27:22.232Z,42.90
2018-02-03T03:29:54.796Z,42.90
2018-02-03T03:32:28.108Z,42.90
2018-02-03T03:35:00.632Z,42.90
2018-02-03T03:37:33.146Z,42.90
2018-02-03T03:40:05.544Z,42.90
2018-02-03T03:42:38.127Z,42.90
2018-02-03T03:45:10.604Z,42.90
2018-02-03T03:47:43.144Z,42.90
2018-02-03T03:50:15.703Z,42.90
2018-02-03T03:52:48.180Z,42.90
2018-02-03T03:55:20.731Z,43.00
2018-02-03T03:57:53.311Z,42.90
2018-02-03T04:00:26.663Z,42.90
2018-02-03T04:02:59.148Z,42.90
2018-02-03T04:05:31.636Z,42.90
2018-02-03T04:08:04.994Z,42.90
2018-02-03T04:10:37.615Z,42.90
2018-02-03T04:13:10.206Z,42.90
2018-02-03T04:15:42.766Z,42.90
2018-02-03T04:18:16.109Z,42.90
2018-02-03T04:20:49.524Z,42.90
2018-02-03T04:23:22.012Z,42.90
2018-02-03T04:25:54.368Z,42.90
2018-02-03T04:28:26.884Z,42.90
2018-02-03T04:30:59.439Z,42.90
2018-02-03T04:33:31.968Z,42.80
2018-02-03T04:36:04.609Z,42.90
2018-02-03T04:38:37.153Z,43.20
2018-02-03T04:41:10.532Z,42.90
2018-02-03T04:43:43.802Z,42.90
2018-02-03T04:46:16.421Z,42.90
2018-02-03T04:48:48.984Z,42.80
2018-02-03T04:51:21.567Z,42.90
2018-02-03T04:53:54.072Z,42.80
2018-02-03T04:56:26.636Z,42.90
2018-02-03T04:58:59.228Z,42.90
2018-02-03T05:01:31.723Z,42.90
2018-02-03T05:04:04.340Z,42.90
2018-02-03T05:06:36.900Z,42.80
2018-02-03T05:09:09.529Z,42.90
2018-02-03T05:11:42.079Z,42.90
2018-02-03T05:14:15.422Z,42.80
2018-02-03T05:16:48.737Z,42.90
2018-02-03T05:19:21.189Z,42.90
2018-02-03T05:21:53.703Z,42.90
2018-02-03T05:24:27.008Z,42.90
2018-02-03T05:27:00.271Z,42.90
2018-02-03T05:29:32.756Z,42.80
2018-02-03T05:32:05.326Z,42.80
2018-02-03T05:34:39.421Z,42.90
2018-02-03T05:37:11.830Z,42.90
2018-02-03T05:39:44.404Z,42.90
2018-02-03T05:42:16.927Z,42.90
2018-02-03T05:44:49.326Z,42.90
2018-02-03T05:47:21.932Z,42.90
2018-02-03T05:49:54.482Z,43.00
2018-02-03T05:52:27.764Z,42.90
2018-02-03T05:55:01.036Z,42.90
2018-02-03T05:57:33.527Z,42.90
2018-02-03T06:00:06.028Z,42.90
2018-02-03T06:02:38.616Z,43.50
2018-02-03T06:05:11.961Z,42.80
2018-02-03T06:07:44.515Z,42.80
2018-02-03T06:10:17.024Z,42.80
2018-02-03T06:12:49.572Z,42.80
2018-02-03T06:15:22.864Z,42.90
2018-02-03T06:17:56.181Z,42.90
2018-02-03T06:20:28.663Z,42.80
2018-02-03T06:23:01.167Z,42.80
2018-02-03T06:25:33.672Z,42.80
2018-02-03T06:28:06.990Z,42.90
2018-02-03T06:30:40.363Z,43.00
2018-02-03T06:33:12.763Z,42.90
2018-02-03T06:35:45.364Z,42.90
2018-02-03T06:38:17.895Z,42.80
2018-02-03T06:40:50.492Z,42.80
2018-02-03T06:43:23.048Z,42.90
2018-02-03T06:45:56.339Z,42.90
2018-02-03T06:48:28.833Z,42.80
2018-02-03T06:51:01.356Z,42.80
2018-02-03T06:53:33.916Z,42.80
2018-02-03T06:56:07.259Z,42.80
2018-02-03T06:58:39.820Z,42.80
2018-02-03T07:01:12.321Z,42.80
2018-02-03T07:03:44.813Z,42.80
2018-02-03T07:06:17.359Z,42.80
2018-02-03T07:08:50.001Z,42.80
2018-02-03T07:11:22.540Z,42.90
2018-02-03T07:13:55.104Z,42.90
2018-02-03T07:16:27.623Z,42.80
2018-02-03T07:19:00.951Z,42.80
2018-02-03T07:21:33.404Z,42.80
2018-02-03T07:24:05.888Z,42.80
2018-02-03T07:26:39.186Z,42.90
2018-02-03T07:29:12.488Z,42.40
2018-02-03T07:31:44.968Z,42.80
2018-02-03T07:34:17.540Z,42.80
2018-02-03T07:36:50.099Z,42.80
2018-02-03T07:39:22.611Z,42.80
2018-02-03T07:41:55.084Z,42.80
2018-02-03T07:44:27.641Z,42.80
2018-02-03T07:47:00.908Z,42.80
2018-02-03T07:49:33.345Z,42.80
2018-02-03T07:52:05.799Z,42.80
2018-02-03T07:54:38.233Z,42.80
2018-02-03T07:57:10.854Z,42.80
2018-02-03T07:59:43.394Z,42.80
2018-02-03T08:02:15.949Z,42.80
2018-02-03T08:04:49.277Z,42.90
2018-02-03T08:07:21.700Z,42.90
2018-02-03T08:09:54.281Z,42.80
2018-02-03T08:12:26.883Z,42.80
2018-02-03T08:14:59.445Z,42.80
2018-02-03T08:17:32.826Z,42.90
2018-02-03T08:20:05.740Z,42.80
2018-02-03T08:22:39.399Z,42.80
2018-02-03T08:25:11.864Z,42.80
2018-02-03T08:27:44.364Z,42.80
2018-02-03T08:30:17.780Z,42.90
2018-02-03T08:32:50.288Z,42.90
2018-02-03T08:35:22.700Z,42.80
2018-02-03T08:37:55.199Z,42.90
2018-02-03T08:40:28.604Z,42.90
2018-02-03T08:43:01.876Z,42.80
2018-02-03T08:45:34.276Z,42.80
2018-02-03T08:48:06.868Z,42.80
2018-02-03T08:50:39.447Z,42.90
2018-02-03T08:53:11.899Z,42.80
2018-02-03T08:55:44.508Z,42.80
2018-02-03T08:58:17.032Z,42.80
2018-02-03T09:00:49.540Z,42.90
2018-02-03T09:03:22.096Z,42.90
2018-02-03T09:05:54.615Z,42.80
2018-02-03T09:08:27.952Z,42.90
2018-02-03T09:11:00.440Z,42.80
2018-02-03T09:13:33.007Z,42.80
2018-02-03T09:16:05.567Z,42.80
2018-02-03T09:18:38.856Z,42.90
2018-02-03T09:21:12.172Z,42.90
2018-02-03T09:23:45.435Z,43.00
2018-02-03T09:26:18.768Z,43.10
2018-02-03T09:28:51.203Z,42.80
2018-02-03T09:31:24.082Z,42.80
2018-02-03T09:33:56.658Z,42.90
2018-02-03T09:36:29.780Z,42.90
2018-02-03T09:39:03.212Z,42.90
2018-02-03T09:41:35.615Z,42.90
2018-02-03T09:44:08.184Z,42.90
2018-02-03T09:46:41.515Z,42.90
2018-02-03T09:49:14.780Z,42.90
2018-02-03T09:51:47.179Z,42.80
2018-02-03T09:54:19.851Z,42.80
2018-02-03T09:56:53.055Z,42.80
2018-02-03T09:59:25.505Z,42.70
2018-02-03T10:01:58.102Z,42.80
2018-02-03T10:04:30.691Z,42.80
2018-02-03T10:07:04.111Z,42.90
2018-02-03T10:09:37.347Z,42.90
2018-02-03T10:12:09.831Z,42.80
2018-02-03T10:14:43.107Z,43.00
2018-02-03T10:17:16.408Z,43.20
2018-02-03T10:19:48.892Z,42.90
2018-02-03T10:22:21.396Z,42.90
2018-02-03T10:24:53.896Z,42.80
2018-02-03T10:27:26.445Z,42.80
2018-02-03T10:29:59.005Z,42.80
2018-02-03T10:32:32.280Z,42.90
2018-02-03T10:35:04.772Z,42.90
2018-02-03T10:37:38.039Z,42.90
2018-02-03T10:40:11.328Z,42.90
2018-02-03T10:42:43.832Z,42.80
2018-02-03T10:45:16.403Z,42.80
2018-02-03T10:47:49.684Z,42.90
2018-02-03T10:50:22.956Z,42.90
2018-02-03T10:52:56.274Z,42.90
2018-02-03T10:55:28.800Z,42.80
2018-02-03T10:58:01.296Z,42.80
2018-02-03T11:00:33.801Z,42.90
2018-02-03T11:03:06.340Z,42.80
2018-02-03T11:05:39.624Z,42.90
2018-02-03T11:08:12.994Z,43.40
2018-02-03T11:10:45.421Z,42.80
2018-02-03T11:13:17.988Z,42.70
2018-02-03T11:15:51.264Z,42.70
2018-02-03T11:18:23.743Z,42.70
2018-02-03T11:20:56.315Z,42.70
2018-02-03T11:23:28.907Z,42.70
2018-02-03T11:26:01.527Z,42.70
2018-02-03T11:28:34.023Z,42.70
2018-02-03T11:31:06.556Z,42.80
2018-02-03T11:33:39.115Z,42.80
2018-02-03T11:36:11.707Z,42.80
2018-02-03T11:38:44.068Z,42.90
2018-02-03T11:41:17.341Z,42.70
2018-02-03T11:43:49.847Z,42.70
2018-02-03T11:46:22.249Z,42.70
2018-02-03T11:48:54.780Z,42.80
2018-02-03T11:51:27.260Z,42.70
2018-02-03T11:53:59.820Z,42.70
2018-02-03T11:56:32.428Z,42.70
2018-02-03T11:59:05.024Z,42.70
2018-02-03T12:01:38.349Z,42.70
2018-02-03T12:04:11.648Z,42.60
2018-02-03T12:06:44.931Z,42.60
2018-02-03T12:09:17.524Z,42.50
2018-02-03T12:11:50.007Z,42.60
2018-02-03T12:14:23.192Z,42.60
2018-02-03T12:16:56.469Z,42.60
2018-02-03T12:19:29.032Z,42.50
2018-02-03T12:22:01.592Z,42.50
2018-02-03T12:24:34.143Z,42.70
2018-02-03T12:27:06.648Z,42.60
2018-02-03T12:29:39.023Z,42.60
2018-02-03T12:32:11.578Z,42.70
2018-02-03T12:34:44.241Z,42.60
2018-02-03T12:37:17.580Z,42.60
2018-02-03T12:39:50.784Z,42.50
2018-02-03T12:42:23.272Z,42.50
2018-02-03T12:44:55.779Z,42.60
2018-02-03T12:47:28.224Z,42.80
2018-02-03T12:50:00.790Z,42.50
2018-02-03T12:52:34.160Z,42.70
2018-02-03T12:55:06.683Z,42.50
2018-02-03T12:57:40.037Z,42.70
2018-02-03T13:00:12.547Z,42.50
2018-02-03T13:02:45.892Z,43.20
2018-02-03T13:05:19.203Z,42.50
2018-02-03T13:07:52.471Z,42.70
2018-02-03T13:10:24.872Z,42.50
2018-02-03T13:12:57.392Z,42.50
2018-02-03T13:15:29.853Z,42.50
2018-02-03T13:18:02.372Z,42.50
2018-02-03T13:20:35.031Z,42.50
2018-02-03T13:23:07.557Z,42.50
2018-02-03T13:25:40.841Z,42.50
2018-02-03T13:28:14.107Z,42.50
2018-02-03T13:30:46.572Z,42.50
2018-02-03T13:33:19.100Z,42.50
2018-02-03T13:35:52.472Z,42.50
2018-02-03T13:38:24.956Z,42.50
2018-02-03T13:40:57.516Z,42.60
2018-02-03T13:43:30.050Z,42.60
2018-02-03T13:46:02.502Z,42.60
2018-02-03T13:48:35.044Z,42.60
2018-02-03T13:51:07.684Z,42.60
2018-02-03T13:53:40.988Z,42.70
2018-02-03T13:56:14.300Z,42.60
2018-02-03T13:58:46.833Z,42.60
2018-02-03T14:01:19.349Z,42.60
2018-02-03T14:03:52.635Z,42.60
2018-02-03T14:06:25.949Z,42.60
2018-02-03T14:08:58.429Z,42.60
2018-02-03T14:11:30.888Z,42.60
2018-02-03T14:14:04.163Z,42.70
2018-02-03T14:16:36.701Z,42.50
2018-02-03T14:19:09.144Z,42.60
2018-02-03T14:21:41.728Z,43.30
2018-02-03T14:24:15.064Z,42.70
2018-02-03T14:26:48.384Z,42.70
2018-02-03T14:29:21.660Z,42.70
2018-02-03T14:31:54.888Z,42.70
2018-02-03T14:34:27.444Z,42.60
2018-02-03T14:37:00.000Z,42.60
2018-02-03T14:39:32.449Z,42.70
2018-02-03T14:42:04.967Z,42.70
2018-02-03T14:44:38.380Z,42.70
2018-02-03T14:47:10.889Z,42.60
2018-02-03T14:49:43.373Z,42.70
2018-02-03T14:52:15.892Z,42.70
2018-02-03T14:54:48.474Z,42.60
2018-02-03T14:57:21.760Z,42.60
2018-02-03T14:59:54.258Z,42.60
2018-02-03T15:02:26.793Z,42.50
2018-02-03T15:04:59.325Z,42.50
2018-02-03T15:07:31.890Z,42.60
2018-02-03T15:10:04.400Z,42.50
2018-02-03T15:12:37.032Z,42.60
2018-02-03T15:15:10.284Z,42.60
2018-02-03T15:17:44.295Z,42.60
2018-02-03T15:20:16.844Z,42.60
2018-02-03T15:22:49.257Z,42.60
2018-02-03T15:25:21.797Z,42.50
2018-02-03T15:27:54.427Z,42.60
2018-02-03T15:30:26.931Z,42.60
2018-02-03T15:33:00.257Z,42.60
2018-02-03T15:35:33.532Z,42.60
2018-02-03T15:38:05.979Z,42.50
2018-02-03T15:40:38.476Z,42.50
2018-02-03T15:43:11.063Z,42.60
2018-02-03T15:45:43.660Z,42.70
2018-02-03T15:48:16.961Z,42.60
2018-02-03T15:50:49.431Z,42.50
2018-02-03T15:53:22.611Z,42.60
2018-02-03T15:55:55.100Z,42.50
2018-02-03T15:58:27.688Z,42.70
2018-02-03T16:01:00.164Z,42.60
2018-02-03T16:03:32.748Z,42.70
2018-02-03T16:06:06.098Z,42.60
2018-02-03T16:08:38.588Z,42.60
2018-02-03T16:11:11.105Z,42.60
2018-02-03T16:13:43.568Z,43.00
2018-02-03T16:16:16.078Z,42.60
2018-02-03T16:18:48.692Z,42.60
2018-02-03T16:21:21.168Z,42.60
2018-02-03T16:23:53.751Z,42.60
2018-02-03T16:26:26.253Z,42.60
2018-02-03T16:28:58.700Z,42.70
2018-02-03T16:31:31.207Z,42.60
2018-02-03T16:34:04.535Z,42.70
2018-02-03T16:36:37.704Z,42.60
2018-02-03T16:39:11.016Z,42.60
2018-02-03T16:41:43.467Z,42.60
2018-02-03T16:44:16.105Z,42.60
2018-02-03T16:46:48.607Z,42.60
2018-02-03T16:49:21.236Z,42.60
2018-02-03T16:51:53.765Z,42.60
2018-02-03T16:54:26.296Z,42.70
2018-02-03T16:56:58.843Z,42.60
2018-02-03T16:59:31.408Z,42.60
2018-02-03T17:02:04.695Z,42.60
2018-02-03T17:04:37.192Z,42.60
2018-02-03T17:07:09.740Z,42.60
2018-02-03T17:09:42.360Z,42.50
2018-02-03T17:12:14.872Z,42.70
2018-02-03T17:14:47.469Z,42.70
2018-02-03T17:17:19.992Z,42.60
2018-02-03T17:19:53.260Z,42.60
2018-02-03T17:22:25.713Z,42.50
2018-02-03T17:24:58.228Z,42.60
2018-02-03T17:27:30.808Z,42.50
2018-02-03T17:30:03.332Z,42.60
2018-02-03T17:32:35.931Z,42.60
2018-02-03T17:35:08.484Z,42.60
2018-02-03T17:37:41.796Z,42.50
2018-02-03T17:40:14.240Z,42.50
2018-02-03T17:42:47.539Z,42.60
2018-02-03T17:45:20.042Z,42.50
2018-02-03T17:47:52.451Z,42.60
2018-02-03T17:50:25.070Z,42.60
2018-02-03T17:52:58.376Z,42.60
2018-02-03T17:55:30.959Z,42.60
2018-02-03T17:58:03.495Z,42.60
2018-02-03T18:00:35.971Z,42.70
2018-02-03T18:03:09.264Z,42.60
2018-02-03T18:05:41.792Z,42.60
2018-02-03T18:08:14.355Z,42.60
2018-02-03T18:10:46.869Z,42.60
2018-02-03T18:13:19.367Z,42.60
2018-02-03T18:15:51.971Z,42.70
2018-02-03T18:18:24.432Z,42.60
2018-02-03T18:20:56.884Z,42.60
2018-02-03T18:23:30.313Z,42.60
2018-02-03T18:26:03.610Z,42.60
2018-02-03T18:28:36.105Z,42.60
2018-02-03T18:31:09.474Z,42.70
2018-02-03T18:33:42.009Z,42.60
2018-02-03T18:36:14.451Z,42.60
2018-02-03T18:38:47.003Z,42.60
2018-02-03T18:41:19.487Z,42.70
2018-02-03T18:43:52.800Z,42.60
2018-02-03T18:46:25.329Z,42.60
2018-02-03T18:48:57.920Z,42.70
2018-02-03T18:51:30.499Z,42.70
2018-02-03T18:54:03.084Z,42.60
2018-02-03T18:56:35.666Z,42.60
2018-02-03T18:59:08.913Z,42.60
2018-02-03T19:01:41.488Z,42.60
2018-02-03T19:04:14.090Z,42.70
2018-02-03T19:06:46.593Z,43.40
2018-02-03T19:09:19.103Z,42.70
2018-02-03T19:11:51.686Z,42.70
2018-02-03T19:14:24.091Z,42.70
2018-02-03T19:16:56.647Z,42.60
2018-02-03T19:19:29.916Z,43.10
2018-02-03T19:22:03.161Z,42.70
2018-02-03T19:24:35.580Z,42.60
2018-02-03T19:27:08.148Z,42.60
2018-02-03T19:29:41.355Z,42.70
2018-02-03T19:32:13.945Z,42.60
2018-02-03T19:34:46.462Z,42.60
2018-02-03T19:37:19.005Z,42.70
2018-02-03T19:39:51.485Z,42.70
2018-02-03T19:42:24.862Z,42.70
2018-02-03T19:44:58.129Z,42.70
2018-02-03T19:47:31.474Z,42.80
2018-02-03T19:50:04.023Z,42.60
2018-02-03T19:52:36.622Z,42.70
2018-02-03T19:55:09.088Z,42.70
2018-02-03T19:57:41.735Z,42.70
2018-02-03T20:00:14.244Z,42.70
2018-02-03T20:02:46.827Z,42.70
2018-02-03T20:05:19.323Z,42.60
2018-02-03T20:07:51.791Z,42.60
2018-02-03T20:10:24.273Z,42.70
2018-02-03T20:12:56.799Z,42.70
2018-02-03T20:15:29.414Z,42.60
2018-02-03T20:18:01.982Z,42.60
2018-02-03T20:20:35.215Z,42.70
2018-02-03T20:23:07.828Z,42.60
2018-02-03T20:25:40.279Z,42.60
2018-02-03T20:28:12.922Z,42.60
2018-02-03T20:30:46.176Z,42.60
2018-02-03T20:33:18.596Z,42.60
2018-02-03T20:35:51.103Z,42.60
2018-02-03T20:38:23.499Z,42.70
2018-02-03T20:40:56.042Z,42.70
2018-02-03T20:43:28.555Z,42.70
2018-02-03T20:46:01.103Z,42.70
2018-02-03T20:48:33.448Z,42.70
2018-02-03T20:51:06.785Z,42.70
2018-02-03T20:53:40.052Z,42.60
2018-02-03T20:56:13.324Z,42.60
2018-02-03T20:58:46.674Z,43.10
2018-02-03T21:01:19.866Z,42.70
2018-02-03T21:03:52.322Z,42.60
2018-02-03T21:06:24.879Z,42.60
2018-02-03T21:08:57.372Z,42.60
2018-02-03T21:11:29.824Z,42.60
2018-02-03T21:14:02.388Z,42.60
2018-02-03T21:16:34.940Z,42.60
2018-02-03T21:19:08.307Z,42.80
2018-02-03T21:21:41.578Z,42.60
2018-02-03T21:24:14.079Z,42.60
2018-02-03T21:26:46.652Z,42.70
2018-02-03T21:29:19.209Z,42.60
2018-02-03T21:31:52.449Z,42.70
2018-02-03T21:34:25.764Z,42.60
2018-02-03T21:36:58.973Z,42.70
2018-02-03T21:39:32.195Z,42.70
2018-02-03T21:42:04.722Z,42.60
2018-02-03T21:44:37.332Z,42.70
2018-02-03T21:47:09.845Z,42.60
2018-02-03T21:49:42.214Z,42.70
2018-02-03T21:52:14.744Z,42.70
2018-02-03T21:54:47.251Z,42.60
2018-02-03T21:57:19.677Z,42.70
2018-02-03T21:59:53.050Z,43.20
2018-02-03T22:02:26.327Z,43.40
2018-02-03T22:04:58.864Z,42.60
2018-02-03T22:07:31.368Z,42.60
2018-02-03T22:10:03.874Z,42.60
2018-02-03T22:12:37.172Z,42.60
2018-02-03T22:15:10.490Z,43.00
2018-02-03T22:17:42.984Z,42.60
2018-02-03T22:20:17.089Z,42.60
2018-02-03T22:22:49.668Z,42.60
2018-02-03T22:25:23.018Z,42.60
2018-02-03T22:27:55.538Z,42.60
2018-02-03T22:30:28.052Z,42.60
2018-02-03T22:33:00.641Z,42.60
2018-02-03T22:35:33.195Z,42.70
2018-02-03T22:38:05.690Z,42.60
2018-02-03T22:40:38.297Z,42.60
2018-02-03T22:43:10.838Z,42.60
2018-02-03T22:45:44.440Z,42.60
2018-02-03T22:48:16.852Z,42.60
2018-02-03T22:50:49.316Z,42.60
2018-02-03T22:53:21.912Z,42.60
2018-02-03T22:55:54.491Z,42.60
2018-02-03T22:58:27.015Z,42.60
2018-02-03T23:00:59.583Z,42.60
2018-02-03T23:03:32.076Z,42.60
2018-02-03T23:06:05.462Z,42.60
2018-02-03T23:08:37.989Z,42.60
2018-02-03T23:11:10.503Z,42.60
2018-02-03T23:13:43.037Z,42.60
2018-02-03T23:16:16.368Z,42.60
2018-02-03T23:18:48.831Z,42.60
2018-02-03T23:21:22.240Z,43.30
2018-02-03T23:23:54.855Z,42.60
2018-02-03T23:26:27.414Z,42.60
2018-02-03T23:28:59.919Z,42.60
2018-02-03T23:31:32.461Z,42.60
2018-02-03T23:34:04.981Z,42.60
2018-02-03T23:36:37.554Z,42.60
2018-02-03T23:39:10.072Z,42.60
2018-02-03T23:41:42.575Z,42.60
2018-02-03T23:44:15.816Z,42.60
2018-02-03T23:46:48.287Z,42.60
2018-02-03T23:49:21.564Z,42.60
2018-02-03T23:51:54.072Z,42.60
2018-02-03T23:54:27.356Z,42.60
2018-02-03T23:56:59.967Z,42.60
2018-02-03T23:59:32.476Z,42.60
